Time;durP1;ratioP1;P1;durP2;ratioP2;P2;SDS_P1;SDS_P2;PMS_P1;PMS_P2;Temp;Humidity;BMP_temperature;BMP_pressure;BME280_temperature;BME280_humidity;BME280_pressure;Samples;Min_cycle;Max_cycle;Signal;HPM_P1;HPM_P2
2022/10/06 00:00:31;;;;;;;2.97;0.57;;;12.90;99.90;;;;;;4897348;29;20078;-85
2022/10/06 00:02:58;;;;;;;2.65;0.30;;;12.90;99.90;;;;;;4898658;29;20103;-85
2022/10/06 00:05:23;;;;;;;0.85;0.20;;;12.80;99.90;;;;;;4898418;29;20438;-87
2022/10/06 00:07:49;;;;;;;4.20;0.47;;;13.20;99.90;;;;;;4897764;29;20149;-84
2022/10/06 00:10:15;;;;;;;0.80;0.40;;;12.80;99.90;;;;;;4897865;29;20402;-84
2022/10/06 00:12:43;;;;;;;4.75;0.30;;;12.80;99.90;;;;;;4898459;29;20056;-84
2022/10/06 00:15:11;;;;;;;1.75;0.50;;;12.70;99.90;;;;;;4897655;29;20088;-84
2022/10/06 00:17:37;;;;;;;2.83;0.28;;;12.80;99.90;;;;;;4896079;29;20056;-85
2022/10/06 00:20:03;;;;;;;4.32;0.47;;;12.80;99.90;;;;;;4897890;29;20068;-84
2022/10/06 00:22:38;;;;;;;1.65;0.20;;;12.70;99.90;;;;;;4897772;29;20120;-85
2022/10/06 00:25:05;;;;;;;1.65;0.25;;;12.70;99.90;;;;;;4898292;29;20059;-86
2022/10/06 00:27:35;;;;;;;1.80;0.20;;;12.60;99.90;;;;;;4898152;29;20056;-84
2022/10/06 00:30:06;;;;;;;3.30;0.57;;;12.60;99.90;;;;;;4899480;29;20052;-84
2022/10/06 00:32:32;;;;;;;2.33;0.30;;;12.60;99.90;;;;;;4897908;29;20098;-86
2022/10/06 00:34:57;;;;;;;1.35;0.45;;;12.50;99.90;;;;;;4896492;29;20088;-84
2022/10/06 00:37:24;;;;;;;1.20;0.25;;;12.50;99.90;;;;;;4897801;29;20048;-84
2022/10/06 00:39:50;;;;;;;3.00;0.30;;;12.40;99.90;;;;;;4897350;29;20104;-85
2022/10/06 00:42:25;;;;;;;2.47;0.40;;;12.50;99.90;;;;;;4897657;29;20461;-86
2022/10/06 00:44:51;;;;;;;4.67;0.50;;;12.40;99.90;;;;;;4897712;29;20057;-84
2022/10/06 00:47:19;;;;;;;2.83;0.30;;;12.70;99.90;;;;;;4897219;29;20295;-86
2022/10/06 00:49:45;;;;;;;5.07;0.30;;;12.70;99.90;;;;;;4897369;29;20077;-84
2022/10/06 00:52:19;;;;;;;2.22;0.30;;;12.40;99.90;;;;;;4897879;29;20200;-84
2022/10/06 00:54:45;;;;;;;2.88;0.32;;;12.40;99.90;;;;;;4896487;29;20064;-86
2022/10/06 00:57:11;;;;;;;2.38;0.30;;;12.40;99.90;;;;;;4897751;29;20056;-84
2022/10/06 00:59:38;;;;;;;2.08;0.50;;;12.40;99.90;;;;;;4896958;29;20409;-84
2022/10/06 01:02:14;;;;;;;4.18;0.50;;;12.70;99.90;;;;;;4896192;29;20061;-84
2022/10/06 01:04:47;;;;;;;3.42;0.40;;;12.40;99.90;;;;;;4896479;29;20056;-83
2022/10/06 01:07:13;;;;;;;2.47;0.55;;;12.80;99.90;;;;;;4897738;29;20053;-85
2022/10/06 01:09:39;;;;;;;2.58;0.43;;;12.40;99.90;;;;;;4896127;29;20061;-85
2022/10/06 01:12:06;;;;;;;2.05;0.30;;;12.40;99.90;;;;;;4897216;29;20048;-85
2022/10/06 01:14:35;;;;;;;7.97;0.50;;;12.60;99.90;;;;;;4897550;29;20112;-84
2022/10/06 01:17:08;;;;;;;4.18;0.30;;;12.40;99.90;;;;;;4896271;29;20136;-86
2022/10/06 01:19:48;;;;;;;1.95;0.57;;;13.00;99.90;;;;;;4901126;29;20450;-85
2022/10/06 01:22:16;;;;;;;4.68;0.52;;;12.40;99.90;;;;;;4900504;29;20060;-84
2022/10/06 01:24:45;;;;;;;4.10;0.30;;;12.40;99.90;;;;;;4900833;29;20052;-84
2022/10/06 01:27:13;;;;;;;1.65;0.50;;;12.90;99.90;;;;;;4901719;29;20048;-85
2022/10/06 01:29:39;;;;;;;2.78;0.60;;;12.80;99.90;;;;;;4900879;29;20132;-84
2022/10/06 01:32:05;;;;;;;2.85;0.30;;;12.40;99.90;;;;;;4898840;29;20788;-85
2022/10/06 01:34:31;;;;;;;2.60;0.40;;;12.40;99.90;;;;;;4900582;29;20079;-83
2022/10/06 01:36:57;;;;;;;5.28;0.60;;;12.30;99.90;;;;;;4900865;29;20135;-84
2022/10/06 01:39:22;;;;;;;4.65;1.05;;;12.30;99.90;;;;;;4900276;29;20144;-84
2022/10/06 01:41:48;;;;;;;4.43;0.50;;;12.50;99.90;;;;;;4900229;29;20052;-88
2022/10/06 01:44:14;;;;;;;3.08;0.45;;;12.20;99.90;;;;;;4898859;29;20064;-84
2022/10/06 01:46:40;;;;;;;1.63;0.30;;;13.10;99.90;;;;;;4915087;29;20143;-83
2022/10/06 01:49:05;;;;;;;1.88;0.30;;;12.20;99.90;;;;;;4900448;29;20059;-84
2022/10/06 01:51:31;;;;;;;2.05;0.40;;;12.10;99.90;;;;;;4900394;29;20061;-85
2022/10/06 01:53:57;;;;;;;4.25;0.60;;;12.10;99.90;;;;;;4898780;29;20057;-84
2022/10/06 01:56:22;;;;;;;2.40;0.40;;;12.10;99.90;;;;;;4899364;29;20056;-85
2022/10/06 01:58:48;;;;;;;2.67;0.32;;;12.10;99.90;;;;;;4900201;29;20053;-84
2022/10/06 02:01:15;;;;;;;1.45;0.40;;;12.00;99.90;;;;;;4899274;29;20052;-84
2022/10/06 02:03:40;;;;;;;4.72;0.50;;;12.00;99.90;;;;;;4900320;29;20056;-83
2022/10/06 02:06:07;;;;;;;2.58;0.30;;;12.00;99.90;;;;;;4900617;29;20065;-84
2022/10/06 02:08:33;;;;;;;6.82;0.40;;;11.90;99.90;;;;;;4900274;29;20049;-84
2022/10/06 02:11:04;;;;;;;2.70;0.43;;;12.30;99.90;;;;;;4900433;29;20103;-84
2022/10/06 02:13:30;;;;;;;2.08;0.57;;;12.60;99.90;;;;;;4898999;29;20126;-85
2022/10/06 02:15:57;;;;;;;2.55;0.30;;;11.90;99.90;;;;;;4899873;29;20056;-85
2022/10/06 02:18:23;;;;;;;4.38;0.22;;;12.10;99.90;;;;;;4900162;29;20132;-86
2022/10/06 02:20:49;;;;;;;2.83;0.52;;;11.80;99.90;;;;;;4900167;29;20063;-84
2022/10/06 02:23:14;;;;;;;1.88;0.30;;;11.90;99.90;;;;;;4898875;29;20056;-86
2022/10/06 02:25:40;;;;;;;4.28;0.40;;;12.20;99.90;;;;;;4900259;29;20052;-89
2022/10/06 02:28:06;;;;;;;1.17;0.30;;;11.70;99.90;;;;;;4900762;29;20096;-85
2022/10/06 02:30:31;;;;;;;1.38;0.30;;;11.80;99.90;;;;;;4901346;29;20084;-84
2022/10/06 02:32:57;;;;;;;1.95;0.30;;;12.60;99.90;;;;;;4901861;29;20513;-84
2022/10/06 02:35:23;;;;;;;0.98;0.32;;;11.60;99.90;;;;;;4899532;29;20128;-84
2022/10/06 02:37:49;;;;;;;2.20;0.47;;;11.60;99.90;;;;;;4898457;29;20060;-85
2022/10/06 02:40:15;;;;;;;2.88;0.40;;;12.60;99.90;;;;;;4899171;29;20052;-84
2022/10/06 02:42:41;;;;;;;8.18;0.55;;;11.70;99.90;;;;;;4899384;29;20055;-85
2022/10/06 02:45:08;;;;;;;4.75;0.40;;;11.70;99.90;;;;;;4899973;29;20189;-84
2022/10/06 02:47:35;;;;;;;1.73;0.28;;;11.70;99.90;;;;;;4898971;29;20451;-84
2022/10/06 02:50:04;;;;;;;4.82;0.70;;;11.70;99.90;;;;;;4899616;29;20071;-84
2022/10/06 02:52:35;;;;;;;4.05;0.30;;;11.80;99.90;;;;;;4898096;29;20155;-84
2022/10/06 02:55:05;;;;;;;1.15;0.30;;;11.70;99.90;;;;;;4897673;29;20509;-85
2022/10/06 02:57:31;;;;;;;0.65;0.22;;;11.70;99.90;;;;;;4899178;29;20494;-86
2022/10/06 02:59:56;;;;;;;4.88;0.40;;;11.70;99.90;;;;;;4899156;29;20056;-84
2022/10/06 03:02:22;;;;;;;2.85;0.40;;;11.90;99.90;;;;;;4899264;29;20056;-84
2022/10/06 03:04:48;;;;;;;3.70;0.40;;;12.20;99.90;;;;;;4898959;29;20051;-84
2022/10/06 03:07:14;;;;;;;2.65;0.40;;;12.30;99.90;;;;;;4898919;29;20056;-85
2022/10/06 03:09:40;;;;;;;8.32;0.63;;;11.60;99.90;;;;;;4898519;29;20086;-84
2022/10/06 03:12:06;;;;;;;3.38;0.50;;;11.60;99.90;;;;;;4899063;29;20053;-86
2022/10/06 03:14:32;;;;;;;4.00;0.50;;;11.60;99.90;;;;;;4898514;29;20438;-87
2022/10/06 03:16:58;;;;;;;2.20;0.22;;;12.00;99.90;;;;;;4899231;29;20445;-85
2022/10/06 03:19:24;;;;;;;1.08;0.28;;;12.20;99.90;;;;;;4898853;29;20436;-84
2022/10/06 03:21:49;;;;;;;0.20;0.20;;;11.60;99.90;;;;;;4898838;29;20048;-85
2022/10/06 03:24:15;;;;;;;2.05;0.30;;;11.60;99.90;;;;;;4898620;29;20136;-84
2022/10/06 03:26:46;;;;;;;3.95;0.45;;;11.50;99.90;;;;;;4897664;29;20052;-84
2022/10/06 03:29:14;;;;;;;2.45;0.20;;;12.00;99.90;;;;;;4897011;29;20056;-84
2022/10/06 03:31:42;;;;;;;3.88;0.40;;;11.50;99.90;;;;;;4897422;29;20056;-84
2022/10/06 03:34:07;;;;;;;2.47;0.38;;;11.50;99.90;;;;;;4897742;29;20072;-84
2022/10/06 03:36:34;;;;;;;1.48;0.30;;;12.10;99.90;;;;;;4897968;29;20057;-84
2022/10/06 03:39:02;;;;;;;4.05;0.40;;;11.40;99.90;;;;;;4896975;29;20088;-84
2022/10/06 03:41:30;;;;;;;1.73;0.30;;;11.40;99.90;;;;;;4912660;29;20139;-86
2022/10/06 03:43:57;;;;;;;2.15;0.30;;;11.40;99.90;;;;;;4895760;29;20056;-85
2022/10/06 03:46:28;;;;;;;0.68;0.20;;;12.00;99.90;;;;;;4897025;29;20053;-84
2022/10/06 03:48:56;;;;;;;1.95;0.22;;;11.80;99.90;;;;;;4898205;29;20052;-84
2022/10/06 03:51:26;;;;;;;5.05;0.40;;;11.30;99.90;;;;;;4898098;29;20063;-84
2022/10/06 03:53:52;;;;;;;0.57;0.35;;;11.30;99.90;;;;;;4898233;29;20405;-84
2022/10/06 03:56:22;;;;;;;0.63;0.10;;;11.40;99.90;;;;;;4896935;29;20052;-84
2022/10/06 03:58:50;;;;;;;3.67;0.30;;;11.20;99.90;;;;;;4898279;29;20455;-84
2022/10/06 04:01:37;;;;;;;3.15;0.38;;;11.20;99.90;;;;;;4898708;29;20063;-86
2022/10/06 04:04:03;;;;;;;3.75;0.40;;;11.20;99.90;;;;;;4897855;29;20056;-84
2022/10/06 04:06:31;;;;;;;2.55;0.32;;;11.60;99.90;;;;;;4897290;29;20067;-86
2022/10/06 04:08:58;;;;;;;2.75;0.38;;;11.30;99.90;;;;;;4898224;29;20063;-84
2022/10/06 04:11:30;;;;;;;5.05;1.23;;;11.20;99.90;;;;;;4897828;29;20048;-87
2022/10/06 04:14:00;;;;;;;5.35;0.40;;;11.30;99.90;;;;;;4898105;29;20421;-84
2022/10/06 04:16:28;;;;;;;1.42;0.30;;;11.40;99.90;;;;;;4898162;29;20524;-84
2022/10/06 04:19:00;;;;;;;3.13;0.30;;;11.60;99.90;;;;;;4897615;29;20056;-84
2022/10/06 04:21:27;;;;;;;6.22;0.55;;;11.40;99.90;;;;;;4896629;29;20169;-85
2022/10/06 04:23:54;;;;;;;1.80;0.47;;;11.40;99.90;;;;;;4897985;29;20053;-84
2022/10/06 04:26:21;;;;;;;1.35;0.30;;;12.40;99.90;;;;;;4898160;29;20084;-84
2022/10/06 04:28:47;;;;;;;4.03;0.50;;;12.10;99.90;;;;;;4898077;29;20116;-84
2022/10/06 04:31:23;;;;;;;2.88;0.63;;;12.20;99.90;;;;;;4899481;29;20056;-84
2022/10/06 04:33:56;;;;;;;4.20;0.50;;;11.40;99.90;;;;;;4899732;29;20502;-85
2022/10/06 04:36:31;;;;;;;1.85;0.30;;;12.10;99.90;;;;;;4898194;29;20044;-83
2022/10/06 04:39:02;;;;;;;4.28;1.40;;;11.40;99.90;;;;;;4897858;29;20057;-85
2022/10/06 04:41:33;;;;;;;5.75;1.20;;;11.40;99.90;;;;;;4897841;29;20040;-84
2022/10/06 04:44:00;;;;;;;1.90;0.43;;;11.80;99.90;;;;;;4896940;29;20064;-85
2022/10/06 04:46:26;;;;;;;2.15;0.30;;;11.30;99.90;;;;;;4890438;29;20086;-84
2022/10/06 04:48:53;;;;;;;3.63;0.65;;;12.20;99.90;;;;;;4878364;29;20414;-84
2022/10/06 04:51:21;;;;;;;3.38;0.63;;;12.00;99.90;;;;;;4895667;29;20060;-84
2022/10/06 04:53:47;;;;;;;5.25;0.68;;;11.20;99.90;;;;;;4901742;29;20091;-83
2022/10/06 04:56:14;;;;;;;1.05;0.40;;;11.20;99.90;;;;;;4902072;29;20052;-84
2022/10/06 04:58:44;;;;;;;1.83;0.30;;;11.20;99.90;;;;;;4901376;29;20379;-84
2022/10/06 05:01:25;;;;;;;3.25;0.25;;;10.90;99.90;;;;;;4906015;29;20080;-84
2022/10/06 05:03:53;;;;;;;2.55;0.47;;;11.60;99.90;;;;;;4911769;29;20139;-84
2022/10/06 05:06:21;;;;;;;4.43;0.38;;;11.00;99.90;;;;;;4914916;29;20100;-84
2022/10/06 05:08:48;;;;;;;3.50;0.65;;;11.30;99.90;;;;;;4913472;29;20052;-84
2022/10/06 05:11:14;;;;;;;6.85;1.02;;;11.80;99.90;;;;;;4915162;29;20048;-85
2022/10/06 05:13:40;;;;;;;3.20;0.40;;;11.10;99.90;;;;;;4922450;29;20037;-85
2022/10/06 05:16:09;;;;;;;4.20;0.50;;;11.00;99.90;;;;;;4924575;29;20056;-84
2022/10/06 05:18:35;;;;;;;5.88;0.70;;;10.50;99.90;;;;;;4924226;29;20041;-84
2022/10/06 05:21:05;;;;;;;3.63;0.60;;;10.10;99.90;;;;;;4923471;29;20072;-84
2022/10/06 05:23:33;;;;;;;0.98;0.40;;;11.00;99.90;;;;;;4921255;29;20095;-86
2022/10/06 05:26:00;;;;;;;7.10;0.57;;;11.00;99.90;;;;;;4913988;29;20052;-84
2022/10/06 05:28:28;;;;;;;3.60;0.45;;;11.50;99.90;;;;;;4914640;29;20101;-83
2022/10/06 05:31:05;;;;;;;2.10;0.40;;;11.00;99.90;;;;;;4903101;29;20057;-83
2022/10/06 05:33:34;;;;;;;3.10;0.40;;;10.90;99.90;;;;;;4901469;29;20423;-84
2022/10/06 05:36:06;;;;;;;3.40;0.40;;;10.40;99.90;;;;;;4901284;29;20454;-84
2022/10/06 05:38:32;;;;;;;3.70;0.43;;;10.80;99.90;;;;;;4899802;29;20052;-84
2022/10/06 05:41:09;;;;;;;5.07;0.70;;;11.40;99.90;;;;;;4902097;29;20071;-87
2022/10/06 05:43:36;;;;;;;3.53;1.17;;;10.80;99.90;;;;;;4902271;29;20052;-85
2022/10/06 05:46:04;;;;;;;2.67;0.40;;;11.50;99.90;;;;;;4903498;29;20060;-88
2022/10/06 05:48:31;;;;;;;4.00;0.35;;;10.80;99.90;;;;;;4903312;29;20051;-85
2022/10/06 05:51:03;;;;;;;3.15;0.30;;;10.70;99.90;;;;;;4904609;29;20129;-92
2022/10/06 05:53:31;;;;;;;3.33;0.70;;;11.10;99.90;;;;;;4907134;29;20072;-91
2022/10/06 05:56:18;;;;;;;3.97;0.60;;;10.70;99.90;;;;;;4899764;29;20044;-91
2022/10/06 05:58:47;;;;;;;4.40;0.50;;;10.80;99.90;;;;;;4903881;29;20060;-91
2022/10/06 06:01:41;;;;;;;3.65;0.60;;;10.80;99.90;;;;;;4907268;29;20645;-89
2022/10/06 06:04:09;;;;;;;1.83;0.35;;;10.80;99.90;;;;;;4899297;29;20088;-91
2022/10/06 06:06:38;;;;;;;3.15;0.40;;;10.70;99.90;;;;;;4900230;29;20159;-90
2022/10/06 06:09:08;;;;;;;2.28;0.40;;;10.80;99.90;;;;;;4900884;29;20056;-91
2022/10/06 06:11:36;;;;;;;1.70;0.95;;;10.80;99.90;;;;;;4899563;29;20183;-92
2022/10/06 06:14:04;;;;;;;4.03;0.50;;;11.90;99.90;;;;;;4900179;29;20076;-89
2022/10/06 06:16:31;;;;;;;4.00;0.32;;;11.10;99.90;;;;;;4899770;29;20049;-87
2022/10/06 06:18:58;;;;;;;3.78;0.80;;;10.90;99.90;;;;;;4900465;29;20573;-89
2022/10/06 06:21:25;;;;;;;4.75;0.70;;;10.90;99.90;;;;;;4901097;29;20048;-90
2022/10/06 06:23:51;;;;;;;4.82;0.70;;;10.90;99.90;;;;;;4899852;29;20111;-90
2022/10/06 06:26:22;;;;;;;2.50;0.50;;;12.10;99.90;;;;;;4900582;29;20108;-88
2022/10/06 06:28:49;;;;;;;2.75;0.55;;;10.90;99.90;;;;;;4900075;29;20052;-86
2022/10/06 06:31:21;;;;;;;5.88;0.60;;;11.20;99.90;;;;;;4899682;29;20048;-87
2022/10/06 06:33:50;;;;;;;4.32;0.70;;;11.00;99.90;;;;;;4899457;29;20057;-86
2022/10/06 06:36:28;;;;;;;2.05;0.47;;;11.00;99.90;;;;;;4899390;29;20060;-85
2022/10/06 06:38:57;;;;;;;1.85;0.40;;;11.10;99.90;;;;;;4897458;29;20513;-88
2022/10/06 06:41:26;;;;;;;1.67;0.40;;;10.90;99.90;;;;;;4897758;29;20056;-88
2022/10/06 06:43:52;;;;;;;1.85;0.50;;;11.20;99.90;;;;;;4899430;29;20056;-86
2022/10/06 06:46:23;;;;;;;8.43;0.47;;;12.00;99.90;;;;;;4898609;29;20405;-85
2022/10/06 06:48:54;;;;;;;4.60;0.60;;;11.50;99.90;;;;;;4882905;29;20059;-90
2022/10/06 06:51:22;;;;;;;1.52;0.70;;;11.20;99.90;;;;;;4899954;29;20088;-92
2022/10/06 06:53:49;;;;;;;3.67;0.50;;;11.30;99.90;;;;;;4898972;29;20409;-91
2022/10/06 06:56:15;;;;;;;4.93;0.70;;;12.10;99.90;;;;;;4898675;29;20065;-89
2022/10/06 06:58:46;;;;;;;3.90;0.50;;;11.80;99.90;;;;;;4899185;29;20541;-90
2022/10/06 07:01:16;;;;;;;5.28;0.50;;;11.50;99.90;;;;;;4900181;29;20052;-91
2022/10/06 07:03:44;;;;;;;2.92;0.40;;;11.80;99.90;;;;;;4900770;29;20444;-90
2022/10/06 07:06:12;;;;;;;5.90;0.60;;;11.60;99.90;;;;;;4899000;29;20057;-92
2022/10/06 07:08:41;;;;;;;2.45;0.63;;;11.60;99.90;;;;;;4899439;29;20413;-90
2022/10/06 07:11:22;;;;;;;3.83;0.50;;;12.60;99.90;;;;;;4898572;29;20075;-91
2022/10/06 07:14:01;;;;;;;4.95;0.70;;;11.80;99.90;;;;;;4899512;29;20056;-92
2022/10/06 07:25:07;;;;;;;2.13;0.52;;;12.20;99.90;;;;;;4903362;29;20048;-92
2022/10/06 07:27:44;;;;;;;4.85;0.60;;;12.20;99.90;;;;;;4904892;29;20060;-89
2022/10/06 07:30:18;;;;;;;3.55;0.80;;;12.40;99.90;;;;;;4903332;29;20468;-92
2022/10/06 07:32:49;;;;;;;7.82;0.93;;;12.30;99.90;;;;;;4901284;29;20052;-89
2022/10/06 07:35:16;;;;;;;2.08;0.50;;;12.50;99.90;;;;;;4900375;29;20056;-92
2022/10/06 07:37:43;;;;;;;2.88;0.40;;;12.50;99.90;;;;;;4899603;29;20056;-89
2022/10/06 07:40:13;;;;;;;4.93;0.40;;;12.60;99.90;;;;;;4900335;29;20060;-90
2022/10/06 07:42:50;;;;;;;1.13;0.50;;;12.60;99.90;;;;;;4903581;29;20056;-92
2022/10/06 07:48:22;;;;;;;7.35;0.52;;;12.80;99.90;;;;;;4892196;29;20041;-88
2022/10/06 07:51:18;;;;;;;8.57;0.60;;;13.40;99.90;;;;;;4906258;29;20524;-83
2022/10/06 07:53:49;;;;;;;2.13;0.70;;;13.40;99.90;;;;;;4889296;29;20175;-88
2022/10/06 07:56:19;;;;;;;7.50;0.77;;;13.20;99.90;;;;;;4892512;29;20048;-89
2022/10/06 07:58:47;;;;;;;6.75;0.60;;;13.20;99.90;;;;;;4897201;29;20061;-83
2022/10/06 08:01:17;;;;;;;2.35;0.40;;;13.60;99.90;;;;;;4898772;29;20085;-84
2022/10/06 08:07:27;;;;;;;2.58;0.50;;;13.40;99.90;;;;;;4894310;29;20067;-85
2022/10/06 08:09:59;;;;;;;4.63;0.50;;;13.50;99.90;;;;;;4897878;29;20064;-83
2022/10/06 08:12:39;;;;;;;3.20;0.50;;;13.60;99.90;;;;;;4887696;29;20053;-89
2022/10/06 08:15:07;;;;;;;4.90;0.73;;;13.70;99.90;;;;;;4887631;29;20089;-91
2022/10/06 08:17:34;;;;;;;3.65;0.60;;;13.70;99.90;;;;;;4894043;29;20057;-95
2022/10/06 08:20:00;;;;;;;2.75;0.40;;;13.80;99.90;;;;;;4890649;29;20084;-89
2022/10/06 08:22:28;;;;;;;3.50;0.60;;;13.90;99.90;;;;;;4900092;29;20089;-87
2022/10/06 08:24:58;;;;;;;5.70;0.57;;;14.40;99.90;;;;;;4894881;29;20091;-85
2022/10/06 08:27:26;;;;;;;3.03;0.60;;;14.10;99.90;;;;;;4893153;29;20061;-85
2022/10/06 08:29:53;;;;;;;5.18;0.70;;;14.20;99.90;;;;;;4893622;29;20057;-89
2022/10/06 08:32:23;;;;;;;5.50;0.65;;;14.30;99.90;;;;;;4907215;29;20067;-90
2022/10/06 08:38:33;;;;;;;2.20;0.45;;;14.40;99.90;;;;;;4901842;29;20043;-89
2022/10/06 08:40:59;;;;;;;5.97;0.52;;;14.50;99.90;;;;;;4897252;29;20522;-83
2022/10/06 08:43:25;;;;;;;4.72;0.52;;;14.70;99.90;;;;;;4898221;29;20052;-83
2022/10/06 08:45:59;;;;;;;7.60;0.90;;;14.60;99.90;;;;;;4899235;29;20108;-83
2022/10/06 08:48:28;;;;;;;7.70;0.50;;;14.80;99.90;;;;;;4900053;29;20118;-87
2022/10/06 08:51:07;;;;;;;3.25;0.50;;;14.80;99.90;;;;;;4905356;29;20444;-86
2022/10/06 08:53:48;;;;;;;3.70;0.50;;;14.90;99.90;;;;;;4891049;29;20056;-89
2022/10/06 08:56:18;;;;;;;1.70;0.40;;;15.00;99.90;;;;;;4897677;29;20096;-85
2022/10/06 08:59:03;;;;;;;2.60;0.40;;;15.30;99.90;;;;;;4897465;29;20061;-85
2022/10/06 09:01:42;;;;;;;4.35;0.40;;;15.20;99.90;;;;;;4898180;29;20048;-85
2022/10/06 09:04:12;;;;;;;5.28;0.50;;;15.20;99.90;;;;;;4896626;29;20064;-85
2022/10/06 09:06:47;;;;;;;2.20;0.32;;;15.30;99.90;;;;;;4898233;29;20056;-85
2022/10/06 09:09:52;;;;;;;4.70;0.57;;;15.40;99.90;;;;;;4897185;29;20076;-85
2022/10/06 09:12:23;;;;;;;7.25;1.00;;;15.50;99.90;;;;;;4896724;29;20063;-85
2022/10/06 09:14:55;;;;;;;3.85;0.40;;;15.60;99.90;;;;;;4897448;29;20056;-85
2022/10/06 09:17:31;;;;;;;4.53;0.35;;;15.60;99.90;;;;;;4896510;29;20481;-85
2022/10/06 09:20:03;;;;;;;3.78;0.68;;;15.70;99.90;;;;;;4897860;29;20057;-85
2022/10/06 09:22:31;;;;;;;3.28;0.30;;;15.80;99.90;;;;;;4898735;29;20115;-85
2022/10/06 09:25:19;;;;;;;4.30;0.50;;;15.80;99.90;;;;;;4902996;29;20059;-86
2022/10/06 09:27:57;;;;;;;0.98;0.20;;;15.80;99.90;;;;;;4899825;29;20139;-85
2022/10/06 09:30:23;;;;;;;3.33;0.85;;;15.90;99.90;;;;;;4897695;29;20060;-85
2022/10/06 09:32:59;;;;;;;5.15;0.32;;;16.00;99.90;;;;;;4898513;29;20052;-85
2022/10/06 09:35:28;;;;;;;3.28;0.40;;;15.90;99.90;;;;;;4897178;29;20199;-84
2022/10/06 09:38:03;;;;;;;2.67;0.40;;;16.00;99.90;;;;;;4912215;29;20454;-85
2022/10/06 09:40:51;;;;;;;4.72;0.45;;;16.00;99.90;;;;;;4902458;29;20067;-86
2022/10/06 09:43:24;;;;;;;2.38;0.40;;;16.10;99.90;;;;;;4932514;29;20454;-87
2022/10/06 09:45:55;;;;;;;3.22;0.50;;;16.20;99.90;;;;;;4917177;29;20051;-85
2022/10/06 09:48:24;;;;;;;3.15;0.40;;;16.30;99.90;;;;;;4915954;29;20084;-86
2022/10/06 09:51:13;;;;;;;3.45;0.32;;;16.40;99.90;;;;;;4916337;29;20051;-86
2022/10/06 09:53:43;;;;;;;3.92;0.38;;;16.50;99.90;;;;;;4916067;29;20060;-90
2022/10/06 09:56:19;;;;;;;6.65;0.50;;;16.60;99.90;;;;;;4903537;29;20053;-89
2022/10/06 09:59:02;;;;;;;3.63;0.30;;;16.80;99.90;;;;;;4906921;29;20521;-91
2022/10/06 10:01:30;;;;;;;3.42;0.57;;;16.80;99.90;;;;;;4908074;29;20056;-93
2022/10/06 10:07:37;;;;;;;3.15;0.45;;;16.80;99.90;;;;;;4884561;29;20156;-91
2022/10/06 10:10:22;;;;;;;3.72;0.47;;;16.80;99.90;;;;;;4884655;29;20498;-92
2022/10/06 10:13:32;;;;;;;6.05;0.40;;;16.50;99.90;;;;;;4917078;23;20083;-89
2022/10/06 10:16:15;;;;;;;3.67;0.40;;;16.50;99.90;;;;;;4918649;29;20079;-90
2022/10/06 10:27:04;;;;;;;1.85;0.30;;;16.70;99.90;;;;;;4918648;29;20055;-89
2022/10/06 10:29:58;;;;;;;4.88;1.27;;;17.00;99.90;;;;;;4918714;29;20052;-90
2022/10/06 10:32:38;;;;;;;3.45;0.32;;;17.00;99.90;;;;;;4918931;29;20112;-89
2022/10/06 10:35:23;;;;;;;4.35;0.60;;;17.20;99.90;;;;;;4904515;29;20135;-88
2022/10/06 10:38:08;;;;;;;3.42;0.52;;;17.30;99.90;;;;;;4910833;29;20126;-88
2022/10/06 10:40:41;;;;;;;1.40;0.30;;;17.40;99.90;;;;;;4921301;29;20063;-86
2022/10/06 10:43:28;;;;;;;1.27;0.30;;;17.40;99.90;;;;;;4927656;29;20060;-89
2022/10/06 10:46:12;;;;;;;2.40;0.30;;;17.40;99.90;;;;;;4901424;29;20090;-90
2022/10/06 10:48:56;;;;;;;2.13;0.17;;;17.40;99.90;;;;;;4902500;29;20066;-88
2022/10/06 10:51:32;;;;;;;2.90;0.50;;;17.50;99.90;;;;;;4916264;29;20055;-89
2022/10/06 10:54:09;;;;;;;4.95;0.60;;;17.60;99.90;;;;;;4899754;29;20058;-89
2022/10/06 10:56:35;;;;;;;3.70;0.50;;;17.70;99.90;;;;;;4906452;29;20092;-87
2022/10/06 10:59:33;;;;;;;1.92;0.20;;;17.70;99.90;;;;;;4901468;29;20159;-90
2022/10/06 11:02:05;;;;;;;3.45;0.20;;;17.80;99.90;;;;;;4900065;29;20533;-87
2022/10/06 11:04:31;;;;;;;1.15;0.30;;;17.80;99.90;;;;;;4917904;29;20059;-86
2022/10/06 11:07:16;;;;;;;3.20;0.30;;;17.90;99.90;;;;;;4900428;29;20126;-90
2022/10/06 11:10:04;;;;;;;2.55;0.28;;;18.00;99.90;;;;;;4900915;29;20056;-89
2022/10/06 11:13:06;;;;;;;2.38;0.20;;;18.10;99.90;;;;;;4916161;29;20467;-89
2022/10/06 11:15:42;;;;;;;4.55;0.60;;;18.10;99.90;;;;;;4902278;29;20064;-91
2022/10/06 11:18:42;;;;;;;1.65;0.28;;;18.10;99.90;;;;;;4919636;29;20048;-90
2022/10/06 11:21:11;;;;;;;4.03;0.28;;;18.10;99.90;;;;;;4903288;29;20104;-87
2022/10/06 11:24:04;;;;;;;3.58;0.40;;;18.20;99.90;;;;;;4919231;29;20417;-90
2022/10/06 11:26:53;;;;;;;4.45;0.38;;;18.20;99.90;;;;;;4901956;29;20139;-89
2022/10/06 11:29:43;;;;;;;1.00;0.30;;;18.20;99.90;;;;;;4915638;29;20505;-89
2022/10/06 11:32:23;;;;;;;1.88;0.28;;;18.20;99.90;;;;;;4900305;29;20058;-88
2022/10/06 11:38:31;;;;;;;4.35;0.40;;;18.00;99.40;;;;;;4900316;29;20052;-88
2022/10/06 11:41:07;;;;;;;1.77;0.20;;;18.00;99.50;;;;;;4916829;29;20588;-89
2022/10/06 11:43:53;;;;;;;;;;;18.10;99.60;;;;;;4900099;29;20060;-87
2022/10/06 11:46:28;;;;;;;2.70;0.22;;;18.20;98.20;;;;;;4901078;29;20364;-89
2022/10/06 11:49:34;;;;;;;2.55;0.20;;;18.20;99.90;;;;;;4900333;29;20138;-88
2022/10/06 11:52:58;;;;;;;1.20;0.20;;;18.20;99.20;;;;;;4899128;29;20098;-89
2022/10/06 11:55:27;;;;;;;2.35;0.50;;;18.30;98.30;;;;;;4902517;29;20505;-89
2022/10/06 11:58:14;;;;;;;1.85;0.20;;;18.30;98.60;;;;;;4903282;29;20056;-89
2022/10/06 12:00:43;;;;;;;1.98;0.20;;;18.40;99.40;;;;;;4900418;29;20056;-86
2022/10/06 12:03:27;;;;;;;1.13;0.30;;;18.40;99.20;;;;;;4899755;29;20053;-89
2022/10/06 12:05:53;;;;;;;1.95;0.20;;;18.40;98.30;;;;;;4888364;29;20059;-88
2022/10/06 12:08:37;;;;;;;3.33;0.30;;;18.40;98.10;;;;;;4901150;29;20056;-84
2022/10/06 12:11:42;;;;;;;3.20;0.38;;;18.60;99.90;;;;;;4916389;29;20130;-85
2022/10/06 12:14:30;;;;;;;3.13;0.22;;;18.60;98.30;;;;;;4916854;29;20071;-84
2022/10/06 12:17:18;;;;;;;1.52;0.13;;;18.60;98.90;;;;;;4900039;29;20131;-84
2022/10/06 12:20:10;;;;;;;0.93;0.10;;;18.70;99.90;;;;;;4915514;29;20560;-84
2022/10/06 12:22:49;;;;;;;2.75;0.30;;;18.80;99.50;;;;;;4858539;29;20068;-84
2022/10/06 12:25:37;;;;;;;1.63;0.20;;;18.90;98.50;;;;;;4828717;29;20171;-86
2022/10/06 12:28:31;;;;;;;1.45;0.20;;;18.90;97.50;;;;;;4846194;29;20102;-88
2022/10/06 12:31:17;;;;;;;2.83;0.20;;;18.80;95.70;;;;;;4862209;29;20057;-84
2022/10/06 12:33:44;;;;;;;1.88;0.28;;;18.70;96.30;;;;;;4858986;29;20431;-88
2022/10/06 12:36:30;;;;;;;4.40;0.30;;;18.60;97.10;;;;;;4860610;29;20537;-88
2022/10/06 12:39:03;;;;;;;2.03;0.20;;;18.60;96.70;;;;;;4867225;29;20057;-85
2022/10/06 12:42:00;;;;;;;2.28;0.38;;;18.60;97.10;;;;;;4864466;29;20045;-88
2022/10/06 12:44:29;;;;;;;;;;;18.60;97.40;;;;;;4846457;29;20465;-86
2022/10/06 12:46:59;;;;;;;1.95;0.28;;;18.60;96.20;;;;;;4844815;29;19928;-85
2022/10/06 12:49:52;;;;;;;3.05;0.30;;;18.60;96.10;;;;;;4843811;29;20148;-90
2022/10/06 12:52:46;;;;;;;1.63;0.20;;;18.50;96.70;;;;;;4859585;29;20459;-95
2022/10/06 12:55:31;;;;;;;3.80;0.30;;;18.40;96.10;;;;;;4859591;29;20066;-84
2022/10/06 12:57:57;;;;;;;2.35;0.28;;;18.30;96.10;;;;;;4844712;29;20144;-87
2022/10/06 13:00:37;;;;;;;2.20;0.30;;;18.30;96.90;;;;;;4874562;29;20048;-89
2022/10/06 13:03:05;;;;;;;2.15;0.30;;;18.20;96.90;;;;;;4899926;29;20048;-90
2022/10/06 13:05:34;;;;;;;2.08;0.20;;;18.20;97.20;;;;;;4901888;29;20083;-87
2022/10/06 13:08:01;;;;;;;0.98;0.10;;;18.30;97.30;;;;;;4907537;29;20060;-90
2022/10/06 13:10:28;;;;;;;2.55;0.20;;;18.30;97.30;;;;;;4925372;29;20127;-91
2022/10/06 13:12:56;;;;;;;1.70;0.32;;;18.30;97.40;;;;;;4920806;29;20060;-89
2022/10/06 13:15:34;;;;;;;1.67;0.30;;;18.20;97.00;;;;;;4905747;29;20060;-91
2022/10/06 13:18:15;;;;;;;1.27;0.20;;;18.10;96.50;;;;;;4903760;29;20103;-92
2022/10/06 13:20:57;;;;;;;3.22;0.22;;;18.10;97.90;;;;;;4903898;29;20052;-87
2022/10/06 13:23:34;;;;;;;0.43;0.08;;;18.20;97.50;;;;;;4921953;29;20058;-93
2022/10/06 13:26:05;;;;;;;3.00;1.27;;;18.20;97.50;;;;;;4904006;29;20139;-85
2022/10/06 13:28:50;;;;;;;2.70;0.47;;;18.20;97.30;;;;;;4902722;29;20104;-87
2022/10/06 13:31:33;;;;;;;3.55;0.50;;;18.30;97.50;;;;;;4902062;29;20052;-86
2022/10/06 13:34:11;;;;;;;3.50;0.40;;;18.40;97.10;;;;;;4886930;29;20091;-86
2022/10/06 13:36:41;;;;;;;1.70;0.20;;;18.30;96.90;;;;;;4902151;29;20203;-86
2022/10/06 13:39:18;;;;;;;2.17;0.20;;;18.30;96.70;;;;;;4902619;29;20074;-86
2022/10/06 13:41:56;;;;;;;1.00;0.17;;;18.30;97.20;;;;;;4902239;29;20043;-87
2022/10/06 13:44:46;;;;;;;2.25;0.20;;;18.40;97.80;;;;;;4902423;29;20401;-87
2022/10/06 13:47:21;;;;;;;3.15;0.30;;;18.40;97.60;;;;;;4902379;29;20095;-87
2022/10/06 13:50:02;;;;;;;4.85;0.30;;;18.20;96.90;;;;;;4918849;29;20107;-86